Time;durP1;ratioP1;P1;durP2;ratioP2;P2;SDS_P1;SDS_P2;PMS_P1;PMS_P2;Temp;Humidity;BMP_temperature;BMP_pressure;BME280_temperature;BME280_humidity;BME280_pressure;Samples;Min_cycle;Max_cycle;Signal;HPM_P1;HPM_P2
2023/02/03 00:04:32;;;;;;;1.90;1.70;;;;;;;1.39;100.00;99125.88;15290620;19;20074;-78
2023/02/03 00:09:56;;;;;;;2.30;1.85;;;;;;;1.44;100.00;99118.50;15277550;19;20043;-75
2023/02/03 00:15:24;;;;;;;2.92;1.65;;;;;;;1.49;100.00;99115.59;15282246;19;20027;-76
2023/02/03 00:20:49;;;;;;;1.80;1.60;;;;;;;1.57;100.00;99104.53;15281037;19;20018;-78
2023/02/03 00:26:17;;;;;;;1.88;1.77;;;;;;;1.67;100.00;99092.44;15282160;19;20057;-78
2023/02/03 00:31:44;;;;;;;2.08;1.80;;;;;;;1.72;100.00;99089.53;15290271;19;20019;-76
2023/02/03 00:37:09;;;;;;;2.28;2.08;;;;;;;1.78;100.00;99090.03;15294093;19;20501;-76
2023/02/03 00:42:33;;;;;;;2.50;2.30;;;;;;;1.83;100.00;99087.09;15291198;19;20014;-76
2023/02/03 00:48:00;;;;;;;3.65;2.90;;;;;;;1.93;100.00;99084.78;15271034;19;20022;-77
2023/02/03 00:53:27;;;;;;;3.13;2.80;;;;;;;1.97;100.00;99057.91;15292166;19;20018;-79
2023/02/03 00:58:52;;;;;;;2.92;2.72;;;;;;;2.05;100.00;99060.13;15300564;19;20434;-79
2023/02/03 01:04:19;;;;;;;3.15;2.85;;;;;;;2.10;100.00;99062.50;15295556;19;20015;-78
2023/02/03 01:09:44;;;;;;;3.20;2.90;;;;;;;2.15;100.00;99049.78;15295689;19;20094;-77
2023/02/03 01:15:08;;;;;;;3.50;3.20;;;;;;;2.19;100.00;99037.16;15291136;19;20506;-80
2023/02/03 01:20:37;;;;;;;3.53;3.22;;;;;;;2.29;100.00;99051.63;15292502;19;20088;-77
2023/02/03 01:26:01;;;;;;;4.10;3.70;;;;;;;2.36;100.00;99047.63;15291767;19;20050;-75
2023/02/03 01:31:38;;;;;;;4.35;3.95;;;;;;;2.45;100.00;99030.25;15290841;19;20038;-79
2023/02/03 01:37:05;;;;;;;4.45;4.05;;;;;;;2.59;100.00;99029.41;15293834;19;20018;-78
2023/02/03 01:42:31;;;;;;;4.57;4.18;;;;;;;2.70;100.00;99024.25;15290087;19;20381;-78
2023/02/03 01:48:00;;;;;;;4.75;4.32;;;;;;;2.84;100.00;99028.69;15294679;19;20023;-78
2023/02/03 01:53:27;;;;;;;4.13;3.80;;;;;;;2.97;100.00;99006.63;15292783;19;20570;-79
2023/02/03 01:58:53;;;;;;;4.40;3.97;;;;;;;3.10;100.00;99009.38;15281220;19;20022;-79
2023/02/03 02:04:18;;;;;;;3.85;3.55;;;;;;;3.15;100.00;99007.25;15283771;19;20821;-78
2023/02/03 02:09:46;;;;;;;3.70;3.40;;;;;;;3.21;100.00;98998.88;15285549;19;20022;-76
2023/02/03 02:15:12;;;;;;;4.20;3.55;;;;;;;3.33;100.00;98994.53;15287155;19;20475;-79
2023/02/03 02:21:13;;;;;;;3.38;3.10;;;;;;;3.66;100.00;98996.78;15293233;19;20027;-78
2023/02/03 02:26:56;;;;;;;;;;;;;;;3.88;100.00;98999.81;15292058;19;20025;-76
2023/02/03 02:32:36;;;;;;;2.90;2.60;;;;;;;4.00;100.00;98991.81;15286072;19;19927;-77
2023/02/03 02:38:10;;;;;;;2.80;2.60;;;;;;;4.07;100.00;98991.38;15291022;19;20011;-77
2023/02/03 02:43:42;;;;;;;2.38;2.22;;;;;;;4.00;100.00;98988.28;15290072;19;20031;-76
2023/02/03 02:49:15;;;;;;;2.75;2.55;;;;;;;3.97;100.00;98962.69;15286250;19;20018;-77
2023/02/03 02:54:44;;;;;;;4.00;2.80;;;;;;;4.00;100.00;98957.16;15275988;19;20018;-76
2023/02/03 03:00:10;;;;;;;2.53;2.33;;;;;;;3.97;100.00;98957.34;15279002;19;20473;-77
2023/02/03 03:05:38;;;;;;;3.97;2.90;;;;;;;4.02;100.00;98949.03;15282219;19;20015;-76
2023/02/03 03:11:08;;;;;;;3.90;3.60;;;;;;;4.24;100.00;98948.41;15332451;19;20477;-79
2023/02/03 03:16:39;;;;;;;4.22;3.90;;;;;;;4.57;100.00;98949.63;15290884;19;20018;-78
2023/02/03 03:22:17;;;;;;;4.50;4.10;;;;;;;4.74;100.00;98934.22;15290564;19;20062;-77
2023/02/03 03:27:49;;;;;;;4.15;3.75;;;;;;;4.89;100.00;98918.88;15290405;19;20035;-77
2023/02/03 03:33:15;;;;;;;4.18;3.60;;;;;;;5.03;100.00;98904.50;14771442;19;10000199;-77
2023/02/03 03:38:46;;;;;;;5.00;3.95;;;;;;;5.07;100.00;98876.63;15282901;19;20291;-78
2023/02/03 03:44:13;;;;;;;4.33;3.40;;;;;;;5.15;100.00;98846.66;15285109;19;20025;-77
2023/02/03 03:49:40;;;;;;;5.30;3.65;;;;;;;5.22;100.00;98831.88;15282150;19;20267;-76
2023/02/03 03:55:09;;;;;;;5.22;3.30;;;;;;;5.29;100.00;98826.91;15281676;19;20588;-78
2023/02/03 04:00:37;;;;;;;4.63;3.65;;;;;;;5.26;100.00;98795.94;15284959;19;20034;-80
2023/02/03 04:06:01;;;;;;;3.83;3.17;;;;;;;5.30;100.00;98799.22;15270622;19;20029;-51
2023/02/03 04:17:07;;;;;;;2.85;2.60;;;;;;;5.43;100.00;98781.28;15286727;19;20042;-55
2023/02/03 04:22:33;;;;;;;3.47;2.50;;;;;;;5.47;100.00;98769.34;15274283;19;20027;-56
2023/02/03 04:27:54;;;;;;;3.75;2.63;;;;;;;5.44;100.00;98779.44;15276349;19;20018;-55
2023/02/03 04:33:18;;;;;;;2.20;2.00;;;;;;;5.50;100.00;98762.94;15273995;19;20026;-53
2023/02/03 04:38:43;;;;;;;4.32;2.60;;;;;;;5.53;100.00;98771.56;15280954;19;20015;-50
2023/02/03 04:44:10;;;;;;;2.83;2.33;;;;;;;5.57;100.00;98766.00;15279443;19;20094;-53
2023/02/03 04:49:35;;;;;;;2.58;2.38;;;;;;;5.55;100.00;98785.66;15283819;19;20605;-54
2023/02/03 04:55:00;;;;;;;3.88;2.30;;;;;;;5.61;100.00;98775.44;15278584;19;20476;-56
2023/02/03 05:00:29;;;;;;;2.33;2.10;;;;;;;5.59;100.00;98758.66;15283760;19;20082;-56
2023/02/03 05:06:04;;;;;;;2.38;2.00;;;;;;;5.60;100.00;98763.03;15279090;19;20050;-53
2023/02/03 05:11:31;;;;;;;2.00;1.70;;;;;;;5.59;100.00;98739.97;15279057;19;20019;-57
2023/02/03 05:16:58;;;;;;;2.58;1.83;;;;;;;5.51;100.00;98730.75;15279292;19;20021;-54
2023/02/03 05:22:23;;;;;;;1.60;1.50;;;;;;;5.55;100.00;98740.22;15273462;19;20018;-50
2023/02/03 05:27:48;;;;;;;2.20;2.00;;;;;;;5.38;100.00;98732.69;15274152;19;20019;-50
2023/02/03 05:33:16;;;;;;;3.05;2.38;;;;;;;5.17;100.00;98738.72;15267360;19;20498;-53
2023/02/03 05:38:41;;;;;;;1.63;1.20;;;;;;;5.40;100.00;98720.06;15270947;19;20026;-54
2023/02/03 05:44:06;;;;;;;1.20;1.10;;;;;;;5.40;100.00;98712.91;15275187;19;20019;-50
2023/02/03 05:49:34;;;;;;;1.30;1.20;;;;;;;5.38;100.00;98713.97;15279975;19;20566;-52
2023/02/03 05:54:59;;;;;;;0.90;0.80;;;;;;;5.40;100.00;98696.00;15275876;19;20041;-51
2023/02/03 06:00:24;;;;;;;1.65;1.20;;;;;;;5.44;100.00;98670.75;15280921;19;20025;-52
2023/02/03 06:05:51;;;;;;;1.35;1.10;;;;;;;5.29;100.00;98693.34;15277391;19;20090;-53
2023/02/03 06:11:16;;;;;;;3.22;1.40;;;;;;;5.17;100.00;98690.66;15272861;19;20025;-53
2023/02/03 06:16:41;;;;;;;1.55;1.45;;;;;;;5.08;100.00;98700.22;15277483;19;20134;-53
2023/02/03 06:22:08;;;;;;;1.60;1.50;;;;;;;5.10;100.00;98668.09;15277766;19;20019;-54
2023/02/03 06:27:33;;;;;;;1.63;1.20;;;;;;;5.09;100.00;98658.38;15273462;19;20027;-53
2023/02/03 06:32:57;;;;;;;1.50;1.13;;;;;;;5.47;100.00;98643.75;15268589;19;20022;-55
2023/02/03 06:38:25;;;;;;;2.47;1.30;;;;;;;5.62;100.00;98608.75;15271760;19;20018;-52
2023/02/03 06:43:49;;;;;;;1.58;1.10;;;;;;;5.34;100.00;98641.22;15268910;19;20078;-51
2023/02/03 06:49:14;;;;;;;1.50;1.10;;;;;;;5.21;100.00;98638.69;15275104;19;20291;-53
2023/02/03 06:54:41;;;;;;;1.58;1.10;;;;;;;5.13;100.00;98632.25;15270297;19;20025;-51
2023/02/03 07:00:07;;;;;;;1.20;1.10;;;;;;;5.12;100.00;98650.09;15275889;19;20030;-54
2023/02/03 07:05:41;;;;;;;2.20;1.30;;;;;;;5.09;100.00;98634.34;15273650;19;20620;-56
2023/02/03 07:11:09;;;;;;;1.83;1.33;;;;;;;5.12;100.00;98628.72;15273412;19;20018;-55
2023/02/03 07:16:36;;;;;;;3.40;1.27;;;;;;;5.39;100.00;98598.13;15273131;19;20089;-56
2023/02/03 07:22:01;;;;;;;2.58;1.10;;;;;;;5.86;100.00;98579.16;15266665;19;20864;-55
2023/02/03 07:27:29;;;;;;;1.65;0.98;;;;;;;6.15;100.00;98576.75;15269863;19;20033;-52
2023/02/03 07:32:55;;;;;;;1.15;0.90;;;;;;;6.37;100.00;98566.91;15267258;19;20018;-52
2023/02/03 07:38:19;;;;;;;1.63;0.95;;;;;;;6.41;100.00;98544.25;15272927;19;20094;-53
2023/02/03 07:43:46;;;;;;;1.70;1.00;;;;;;;6.46;100.00;98550.06;15282296;19;20018;-56
2023/02/03 07:49:11;;;;;;;2.65;1.10;;;;;;;6.45;100.00;98544.84;15283582;19;20015;-53
2023/02/03 07:54:36;;;;;;;1.90;0.82;;;;;;;6.44;100.00;98541.31;15279609;19;20029;-50
2023/02/03 08:00:03;;;;;;;1.75;0.93;;;;;;;6.47;100.00;98549.09;15288753;19;20022;-54
2023/02/03 08:05:35;;;;;;;1.83;0.80;;;;;;;6.55;100.00;98536.84;15284287;19;20487;-51
2023/02/03 08:11:01;;;;;;;2.17;1.00;;;;;;;6.68;100.00;98550.03;15283769;19;20497;-51
2023/02/03 08:16:22;;;;;;;2.03;1.10;;;;;;;6.79;100.00;98553.47;15275669;19;20045;-51
2023/02/03 08:21:47;;;;;;;1.53;0.80;;;;;;;6.76;100.00;98556.41;15277153;19;20023;-50
2023/02/03 08:27:13;;;;;;;2.75;1.00;;;;;;;6.79;100.00;98509.78;15285076;19;20019;-50
2023/02/03 08:32:42;;;;;;;2.85;1.10;;;;;;;6.92;100.00;98505.03;15275590;19;20035;-51
2023/02/03 08:38:07;;;;;;;1.20;0.85;;;;;;;6.89;100.00;98508.00;15279597;19;20019;-51
2023/02/03 08:43:31;;;;;;;1.45;0.98;;;;;;;6.96;100.00;98499.41;15278643;19;20050;-51
2023/02/03 08:49:01;;;;;;;3.33;1.95;;;;;;;6.94;100.00;98516.44;15276991;19;20500;-51
2023/02/03 08:54:26;;;;;;;2.58;1.23;;;;;;;6.99;100.00;98494.63;15276268;19;20086;-52
2023/02/03 08:59:51;;;;;;;3.72;2.03;;;;;;;6.98;100.00;98482.22;15282460;19;20025;-51
2023/02/03 09:05:19;;;;;;;2.20;0.82;;;;;;;6.98;100.00;98474.19;15280073;19;20024;-51
2023/02/03 09:10:44;;;;;;;4.88;1.10;;;;;;;6.93;100.00;98471.94;15281505;19;20509;-51
2023/02/03 09:16:09;;;;;;;1.25;0.68;;;;;;;6.88;100.00;98470.66;15252980;19;20074;-51
2023/02/03 09:21:37;;;;;;;1.50;0.80;;;;;;;6.98;100.00;98447.41;15274223;19;20408;-51
2023/02/03 09:27:05;;;;;;;1.90;0.80;;;;;;;7.07;100.00;98445.72;15279928;19;20025;-49
2023/02/03 09:32:30;;;;;;;2.42;1.10;;;;;;;7.03;100.00;98434.44;15274881;19;20026;-52
2023/02/03 09:37:57;;;;;;;1.70;0.80;;;;;;;7.08;100.00;98452.75;15277070;19;20033;-49
2023/02/03 09:43:37;;;;;;;2.20;0.80;;;;;;;7.11;100.00;98425.69;15274037;19;20078;-50
2023/02/03 09:49:06;;;;;;;1.33;0.80;;;;;;;7.14;100.00;98397.78;15279257;19;20019;-51
2023/02/03 09:54:44;;;;;;;2.70;0.73;;;;;;;7.15;100.00;98402.16;15270930;19;20069;-52
2023/02/03 10:00:18;;;;;;;1.10;0.60;;;;;;;7.25;100.00;98416.41;15276709;19;20022;-52
2023/02/03 10:06:17;;;;;;;1.33;0.70;;;;;;;7.17;100.00;98413.59;15276364;19;20027;-54
2023/02/03 10:12:07;;;;;;;1.27;0.70;;;;;;;7.21;100.00;98415.00;15277632;19;20074;-52
2023/02/03 10:17:40;;;;;;;0.70;0.50;;;;;;;7.19;100.00;98419.66;15272263;19;20105;-51
2023/02/03 10:23:11;;;;;;;1.77;0.55;;;;;;;7.23;100.00;98427.28;15272565;19;20023;-55
2023/02/03 10:28:41;;;;;;;0.43;0.30;;;;;;;7.28;100.00;98394.69;15274951;19;20022;-54
2023/02/03 10:34:14;;;;;;;0.85;0.50;;;;;;;7.22;100.00;98400.63;15272003;19;20026;-55
2023/02/03 10:39:43;;;;;;;1.70;0.40;;;;;;;7.16;100.00;98401.16;15276159;19;20074;-52
2023/02/03 10:45:14;;;;;;;0.60;0.40;;;;;;;7.06;100.00;98431.47;15283262;19;20084;-51
2023/02/03 10:50:38;;;;;;;0.63;0.40;;;;;;;7.12;100.00;98381.00;15280879;19;20475;-56
2023/02/03 10:56:08;;;;;;;0.88;0.40;;;;;;;7.05;100.00;98341.38;15275351;19;20015;-55
2023/02/03 11:01:46;;;;;;;0.60;0.40;;;;;;;7.00;100.00;98327.56;15272766;19;20372;-57
2023/02/03 11:07:32;;;;;;;1.10;0.55;;;;;;;6.83;100.00;98314.88;15272435;19;20101;-54
2023/02/03 11:13:13;;;;;;;0.82;0.47;;;;;;;6.70;100.00;98289.22;15265375;19;20025;-50
2023/02/03 11:18:54;;;;;;;0.30;0.30;;;;;;;6.77;100.00;98343.88;15273944;19;20021;-52
2023/02/03 11:24:22;;;;;;;1.13;0.20;;;;;;;6.94;100.00;98333.50;15270908;19;20021;-51
2023/02/03 11:29:50;;;;;;;1.00;0.20;;;;;;;6.95;100.00;98324.47;15274234;19;20026;-52
2023/02/03 11:35:22;;;;;;;0.17;0.17;;;;;;;7.06;100.00;98320.78;15268862;19;20010;-58
2023/02/03 11:40:47;;;;;;;0.45;0.30;;;;;;;7.13;100.00;98338.00;15273409;19;20074;-53
2023/02/03 11:46:12;;;;;;;0.20;0.20;;;;;;;7.19;100.00;98309.78;15273793;19;20023;-53
2023/02/03 11:51:49;;;;;;;0.40;0.20;;;;;;;7.24;100.00;98345.03;15271598;19;20082;-51
2023/02/03 11:57:30;;;;;;;0.40;0.20;;;;;;;7.21;100.00;98330.09;15267890;19;20022;-53
2023/02/03 12:03:23;;;;;;;2.23;0.40;;;;;;;7.05;100.00;98330.66;15265863;19;20502;-52
2023/02/03 12:09:19;;;;;;;0.50;0.40;;;;;;;6.96;100.00;98342.22;15270440;19;20040;-54
2023/02/03 12:14:55;;;;;;;1.00;0.43;;;;;;;6.90;100.00;98361.53;15266514;19;20377;-54
2023/02/03 12:20:32;;;;;;;0.50;0.40;;;;;;;6.79;100.00;98354.47;15272871;19;20039;-54
2023/02/03 12:26:18;;;;;;;0.60;0.40;;;;;;;6.90;100.00;98391.84;15279841;19;20032;-53
2023/02/03 12:31:47;;;;;;;0.77;0.30;;;;;;;6.85;100.00;98361.94;15285365;19;20043;-50
2023/02/03 12:37:18;;;;;;;0.40;0.40;;;;;;;6.92;100.00;98347.03;15278801;19;20026;-52
2023/02/03 12:42:49;;;;;;;1.33;0.50;;;;;;;6.84;100.00;98375.47;15283842;19;20038;-51
2023/02/03 12:48:18;;;;;;;0.60;0.50;;;;;;;6.84;100.00;98389.72;15282257;19;20074;-53
2023/02/03 12:53:47;;;;;;;1.00;0.40;;;;;;;6.99;100.00;98363.38;15277559;19;20019;-55
2023/02/03 12:59:21;;;;;;;1.15;0.60;;;;;;;7.01;100.00;98339.97;15275948;19;20036;-52
2023/02/03 13:04:52;;;;;;;0.75;0.40;;;;;;;7.01;100.00;98364.06;15279363;19;20052;-57
2023/02/03 13:10:24;;;;;;;1.10;0.60;;;;;;;6.94;100.00;98354.91;15281386;19;20086;-55
2023/02/03 13:15:55;;;;;;;2.80;0.80;;;;;;;6.81;100.00;98376.63;15278378;19;20046;-58
2023/02/03 13:21:21;;;;;;;1.57;0.70;;;;;;;6.78;100.00;98372.38;15280815;19;20074;-56
2023/02/03 13:27:08;;;;;;;1.08;0.80;;;;;;;6.78;100.00;98428.59;15281309;19;20384;-60
2023/02/03 13:33:15;;;;;;;2.97;1.45;;;;;;;6.76;100.00;98460.00;15273909;19;20022;-52
2023/02/03 13:39:02;;;;;;;0.77;0.68;;;;;;;6.71;100.00;98451.56;15277576;19;20021;-53
2023/02/03 13:44:29;;;;;;;1.58;0.70;;;;;;;6.67;100.00;98426.03;15274477;19;20479;-56
2023/02/03 13:50:01;;;;;;;3.67;0.80;;;;;;;6.70;100.00;98416.91;15281350;19;20014;-56
2023/02/03 13:55:38;;;;;;;5.93;1.23;;;;;;;6.69;100.00;98423.22;15277889;19;20018;-53
2023/02/03 14:01:09;;;;;;;6.03;1.35;;;;;;;6.65;100.00;98449.41;15278599;19;20018;-52
2023/02/03 14:07:07;;;;;;;3.70;1.10;;;;;;;6.66;100.00;98448.41;15276228;19;20022;-55
2023/02/03 14:12:38;;;;;;;5.38;1.70;;;;;;;6.67;100.00;98426.03;15273560;19;20031;-51
2023/02/03 14:18:08;;;;;;;7.07;1.80;;;;;;;6.71;100.00;98435.50;15270713;19;20015;-54
2023/02/03 14:23:44;;;;;;;7.30;1.75;;;;;;;6.67;100.00;98444.75;15271583;19;20559;-54
2023/02/03 14:29:09;;;;;;;6.63;1.95;;;;;;;6.66;100.00;98420.81;15276579;19;20538;-58
2023/02/03 14:34:42;;;;;;;6.60;1.73;;;;;;;6.60;100.00;98433.75;15271124;19;20018;-56
2023/02/03 14:40:24;;;;;;;5.28;1.80;;;;;;;6.66;100.00;98432.34;15276899;19;20026;-52
2023/02/03 14:46:03;;;;;;;9.07;1.75;;;;;;;6.63;100.00;98432.66;15273603;19;20042;-55
2023/02/03 14:51:55;;;;;;;7.88;1.80;;;;;;;6.64;100.00;98455.78;15271997;19;20375;-52
2023/02/03 14:57:32;;;;;;;;;;;;;;;6.63;100.00;98454.06;15272134;19;20028;-55
2023/02/03 15:03:29;;;;;;;8.10;2.08;;;;;;;6.57;100.00;98450.09;15272588;19;19921;-57
2023/02/03 15:08:58;;;;;;;7.70;1.88;;;;;;;6.58;100.00;98486.59;15274218;19;20022;-53
2023/02/03 15:14:30;;;;;;;9.25;2.25;;;;;;;6.58;100.00;98497.31;15269037;19;20023;-54
2023/02/03 15:19:56;;;;;;;17.45;10.50;;;;;;;6.53;100.00;98494.19;15270948;19;20024;-53
2023/02/03 15:25:26;;;;;;;10.65;2.90;;;;;;;6.46;100.00;98509.91;15273049;19;20020;-56
2023/02/03 15:30:48;;;;;;;10.57;2.30;;;;;;;6.48;100.00;98499.06;15272631;19;20029;-53
2023/02/03 15:36:19;;;;;;;9.25;2.50;;;;;;;6.42;100.00;98526.38;15270477;19;20342;-56
2023/02/03 15:41:44;;;;;;;10.27;2.60;;;;;;;6.44;100.00;98519.91;15270281;19;20018;-54
2023/02/03 15:47:23;;;;;;;8.15;2.20;;;;;;;6.34;100.00;98513.66;15272589;19;20018;-56
2023/02/03 15:52:50;;;;;;;9.05;2.00;;;;;;;6.29;100.00;98518.56;15268971;19;20349;-52
2023/02/03 15:58:20;;;;;;;7.85;2.00;;;;;;;6.23;100.00;98505.69;15264371;19;20027;-51
2023/02/03 16:03:51;;;;;;;8.57;2.35;;;;;;;6.15;100.00;98515.25;15278291;19;20687;-51
2023/02/03 16:09:35;;;;;;;9.47;2.50;;;;;;;6.11;100.00;98524.50;15286786;19;20127;-53
2023/02/03 16:15:01;;;;;;;16.83;8.32;;;;;;;6.15;100.00;98523.25;15283479;19;20029;-55
2023/02/03 16:20:36;;;;;;;11.98;2.95;;;;;;;6.15;100.00;98533.09;15285100;19;20035;-54
2023/02/03 16:26:11;;;;;;;9.30;2.30;;;;;;;6.16;100.00;98532.13;15285322;19;20042;-55
2023/02/03 16:54:32;;;;;;;7.35;1.98;;;;;;;6.09;100.00;98563.06;15274497;19;20483;-52
2023/02/03 16:59:57;;;;;;;5.20;1.63;;;;;;;6.05;100.00;98580.31;15282201;19;20477;-54
2023/02/03 17:05:22;;;;;;;9.18;2.35;;;;;;;6.07;100.00;98576.53;15279805;19;20028;-54
2023/02/03 17:10:51;;;;;;;9.07;2.25;;;;;;;5.99;100.00;98598.59;15279204;19;20032;-53
2023/02/03 17:16:18;;;;;;;6.80;2.03;;;;;;;6.02;100.00;98610.88;15280781;19;20472;-57
2023/02/03 17:21:42;;;;;;;7.57;2.00;;;;;;;5.91;100.00;98618.91;15279416;19;20022;-54
2023/02/03 17:27:10;;;;;;;8.82;2.33;;;;;;;5.85;100.00;98631.78;15279028;19;20428;-57
2023/02/03 17:32:34;;;;;;;11.02;2.42;;;;;;;5.74;100.00;98623.78;15272556;19;20452;-57
2023/02/03 17:37:59;;;;;;;10.18;2.35;;;;;;;5.74;100.00;98620.28;15276681;19;20388;-52
2023/02/03 17:43:26;;;;;;;11.45;2.83;;;;;;;5.77;100.00;98617.34;15273123;19;20018;-54
2023/02/03 17:49:05;;;;;;;10.77;2.40;;;;;;;5.76;100.00;98632.53;15278329;19;20642;-53
2023/02/03 17:54:43;;;;;;;9.93;2.33;;;;;;;5.71;100.00;98624.91;15272189;19;20022;-52
2023/02/03 18:00:12;;;;;;;8.80;2.38;;;;;;;5.65;100.00;98619.19;15271678;19;20082;-55
2023/02/03 18:05:38;;;;;;;7.88;2.20;;;;;;;5.72;100.00;98641.78;15275346;19;20014;-54
2023/02/03 18:11:03;;;;;;;8.90;1.98;;;;;;;5.78;100.00;98649.31;15276292;19;20045;-55
2023/02/03 18:16:34;;;;;;;10.05;2.40;;;;;;;5.69;100.00;98653.56;15274276;19;20487;-57
2023/02/03 18:21:59;;;;;;;10.00;2.17;;;;;;;5.70;100.00;98667.81;15273271;19;20025;-54
2023/02/03 18:27:23;;;;;;;11.85;2.33;;;;;;;5.71;100.00;98672.16;15277773;19;20058;-53
2023/02/03 18:32:54;;;;;;;8.82;2.30;;;;;;;5.73;100.00;98675.56;15271736;19;20022;-55
2023/02/03 18:38:19;;;;;;;10.30;2.77;;;;;;;5.73;100.00;98672.88;15268843;19;20418;-55
2023/02/03 18:43:44;;;;;;;8.30;2.08;;;;;;;5.52;100.00;98672.81;15272966;19;20480;-52
2023/02/03 18:49:11;;;;;;;9.82;2.50;;;;;;;5.40;100.00;98702.22;15276447;19;20025;-53
2023/02/03 18:54:36;;;;;;;9.60;2.42;;;;;;;5.40;100.00;98696.88;15271567;19;20019;-53
2023/02/03 19:00:01;;;;;;;11.48;2.50;;;;;;;5.44;100.00;98717.97;15274684;19;20483;-54
2023/02/03 19:05:35;;;;;;;10.55;2.67;;;;;;;5.51;100.00;98714.72;15270889;19;20014;-51
2023/02/03 19:11:00;;;;;;;10.82;2.50;;;;;;;5.49;100.00;98743.38;15274158;19;20018;-54
2023/02/03 19:16:25;;;;;;;10.18;2.30;;;;;;;5.43;100.00;98749.22;15271938;19;20036;-51
2023/02/03 19:21:53;;;;;;;10.55;2.75;;;;;;;5.43;100.00;98767.91;15272144;19;20090;-55
2023/02/03 19:27:19;;;;;;;8.63;2.45;;;;;;;5.41;100.00;98761.84;15274286;19;20022;-50
2023/02/03 19:32:43;;;;;;;11.57;2.65;;;;;;;5.34;100.00;98777.50;15270803;19;20354;-53
2023/02/03 19:38:11;;;;;;;9.57;2.60;;;;;;;5.33;100.00;98785.63;15282350;19;20019;-51
2023/02/03 19:43:35;;;;;;;10.57;2.50;;;;;;;5.33;100.00;98785.63;15280428;19;20026;-51
2023/02/03 19:49:00;;;;;;;7.35;1.92;;;;;;;5.38;100.00;98811.03;15287191;19;20058;-53
2023/02/03 19:54:27;;;;;;;12.70;3.13;;;;;;;5.29;100.00;98805.53;15280661;19;20037;-54
2023/02/03 19:59:52;;;;;;;11.00;2.85;;;;;;;5.28;100.00;98803.84;15280288;19;20019;-52
2023/02/03 20:05:23;;;;;;;13.43;3.00;;;;;;;5.25;100.00;98788.91;15282483;19;20066;-53
2023/02/03 20:10:51;;;;;;;9.55;2.50;;;;;;;5.19;100.00;98784.88;15283051;19;20050;-53
2023/02/03 20:16:17;;;;;;;10.60;2.42;;;;;;;5.17;100.00;98786.81;15284868;19;20014;-50
2023/02/03 20:21:41;;;;;;;8.27;2.15;;;;;;;5.21;100.00;98792.75;15283181;19;20023;-51
2023/02/03 20:27:10;;;;;;;10.35;2.25;;;;;;;5.15;100.00;98799.44;15282894;19;20022;-51
2023/02/03 20:32:36;;;;;;;9.88;2.40;;;;;;;5.15;100.00;98794.09;15280387;19;20022;-51
2023/02/03 20:38:00;;;;;;;10.02;2.45;;;;;;;5.22;100.00;98811.38;15276312;19;20015;-51
2023/02/03 20:43:30;;;;;;;8.65;2.42;;;;;;;5.22;100.00;98816.72;15277781;19;20497;-53
2023/02/03 20:48:55;;;;;;;9.77;2.20;;;;;;;5.17;100.00;98800.16;15284783;19;20022;-52
2023/02/03 20:54:24;;;;;;;8.40;2.20;;;;;;;5.11;100.00;98802.44;15277559;19;20028;-50
2023/02/03 20:59:51;;;;;;;8.93;2.20;;;;;;;5.10;100.00;98812.31;15277695;19;20082;-54
2023/02/03 21:05:32;;;;;;;10.50;2.45;;;;;;;5.09;100.00;98842.63;15280921;19;20523;-49
2023/02/03 21:10:57;;;;;;;10.40;2.60;;;;;;;5.06;100.00;98846.38;15285902;19;20010;-50
2023/02/03 21:16:28;;;;;;;13.15;2.85;;;;;;;5.03;100.00;98845.75;15295230;19;20405;-53
2023/02/03 21:21:53;;;;;;;9.07;2.20;;;;;;;5.02;100.00;98836.91;15286740;19;20360;-52
2023/02/03 21:27:31;;;;;;;8.93;2.30;;;;;;;4.85;100.00;98840.84;15286834;19;20028;-51
2023/02/03 21:32:59;;;;;;;9.27;2.60;;;;;;;4.79;100.00;98822.59;15274914;19;20349;-53
2023/02/03 21:38:36;;;;;;;9.23;2.28;;;;;;;4.73;100.00;98839.94;15274757;19;20023;-50
2023/02/03 21:44:04;;;;;;;9.40;2.30;;;;;;;4.74;100.00;98838.13;15270307;19;20022;-53
2023/02/03 21:49:32;;;;;;;10.90;2.60;;;;;;;4.75;100.00;98896.72;15276897;19;20022;-48
2023/02/03 21:54:57;;;;;;;8.88;2.00;;;;;;;4.77;100.00;98880.59;15278135;19;20031;-49
2023/02/03 22:00:49;;;;;;;9.75;2.20;;;;;;;4.73;100.00;98885.31;15272306;19;20042;-50
2023/02/03 22:06:30;;;;;;;11.32;2.63;;;;;;;4.83;100.00;98912.19;15276170;19;20291;-50
2023/02/03 22:11:55;;;;;;;10.38;2.60;;;;;;;4.86;100.00;98873.72;15274863;19;20964;-51
2023/02/03 22:17:21;;;;;;;10.38;2.22;;;;;;;4.82;100.00;98883.78;15275212;19;20460;-49
2023/02/03 22:22:48;;;;;;;8.57;2.40;;;;;;;4.76;100.00;98905.59;15271142;19;20014;-51
2023/02/03 22:28:14;;;;;;;10.98;2.55;;;;;;;4.75;100.00;98925.25;15274876;19;20039;-50
2023/02/03 22:33:40;;;;;;;8.95;2.25;;;;;;;4.72;100.00;98920.13;15269317;19;20042;-53
2023/02/03 22:39:07;;;;;;;9.95;2.22;;;;;;;4.62;100.00;98936.81;15271593;19;20455;-52
2023/02/03 22:44:31;;;;;;;9.13;2.08;;;;;;;4.51;100.00;98923.41;15271842;19;20019;-51
2023/02/03 22:49:56;;;;;;;8.30;2.10;;;;;;;4.48;100.00;98944.94;15272713;19;20357;-51
2023/02/03 22:55:24;;;;;;;10.57;2.17;;;;;;;4.45;100.00;98940.69;15274210;19;20007;-53
2023/02/03 23:00:50;;;;;;;9.70;2.20;;;;;;;4.47;100.00;98946.75;15271130;19;20043;-50
2023/02/03 23:06:15;;;;;;;12.23;2.67;;;;;;;4.50;100.00;98963.50;15273329;19;20031;-51
2023/02/03 23:11:43;;;;;;;8.85;2.22;;;;;;;4.49;100.00;98965.34;15269340;19;20089;-49
2023/02/03 23:17:07;;;;;;;13.38;2.65;;;;;;;4.45;100.00;98995.84;15273627;19;20074;-51
2023/02/03 23:22:32;;;;;;;9.07;2.25;;;;;;;4.44;100.00;99002.16;15267515;19;20050;-52
2023/02/03 23:27:59;;;;;;;9.70;2.20;;;;;;;4.40;100.00;99038.88;15272843;19;20022;-49
2023/02/03 23:33:24;;;;;;;7.60;1.90;;;;;;;4.40;100.00;99006.84;15265952;19;20022;-52
2023/02/03 23:38:49;;;;;;;10.63;2.40;;;;;;;4.29;100.00;99002.25;15269160;19;20018;-53
2023/02/03 23:44:17;;;;;;;10.13;2.33;;;;;;;4.34;100.00;99046.44;15268891;19;20042;-52
2023/02/03 23:49:41;;;;;;;9.00;2.03;;;;;;;4.28;100.00;99023.72;15271271;19;20035;-53
2023/02/03 23:55:06;;;;;;;12.30;2.63;;;;;;;4.17;100.00;99037.81;15268715;19;20014;-52
